createdAt,value
2023-05-22T00:00:19.178Z,100.00
2023-05-22T00:03:08.506Z,100.00
2023-05-22T00:05:44.261Z,100.00
2023-05-22T00:08:21.598Z,100.00
2023-05-22T00:10:49.875Z,100.00
2023-05-22T00:16:10.084Z,100.00
2023-05-22T00:18:55.827Z,100.00
2023-05-22T00:21:28.971Z,100.00
2023-05-22T00:24:13.455Z,100.00
2023-05-22T00:26:43.977Z,100.00
2023-05-22T00:29:16.299Z,100.00
2023-05-22T00:31:52.704Z,100.00
2023-05-22T00:34:25.312Z,100.00
2023-05-22T00:36:55.625Z,100.00
2023-05-22T00:39:23.928Z,100.00
2023-05-22T00:41:57.189Z,100.00
2023-05-22T00:44:27.447Z,100.00
2023-05-22T00:47:03.501Z,100.00
2023-05-22T00:49:38.926Z,100.00
2023-05-22T00:52:09.508Z,100.00
2023-05-22T00:54:52.688Z,100.00
2023-05-22T00:57:23.285Z,100.00
2023-05-22T00:59:51.689Z,100.00
2023-05-22T01:02:22.665Z,100.00
2023-05-22T01:04:56.897Z,100.00
2023-05-22T01:07:32.418Z,100.00
2023-05-22T01:10:02.736Z,100.00
2023-05-22T01:12:59.841Z,100.00
2023-05-22T01:15:48.950Z,100.00
2023-05-22T01:21:46.494Z,100.00
2023-05-22T01:25:34.926Z,100.00
2023-05-22T01:28:26.857Z,100.00
2023-05-22T01:31:07.646Z,100.00
2023-05-22T01:33:56.686Z,100.00
2023-05-22T01:36:39.113Z,100.00
2023-05-22T01:39:08.605Z,100.00
2023-05-22T01:41:57.606Z,100.00
2023-05-22T01:44:34.935Z,100.00
2023-05-22T01:47:30.220Z,100.00
2023-05-22T01:49:57.847Z,100.00
2023-05-22T01:52:54.616Z,100.00
2023-05-22T01:55:34.837Z,100.00
2023-05-22T01:58:23.501Z,100.00
2023-05-22T02:00:54.238Z,100.00
2023-05-22T02:04:03.880Z,100.00
2023-05-22T02:06:33.050Z,100.00
2023-05-22T02:09:02.419Z,100.00
2023-05-22T02:11:34.265Z,100.00
2023-05-22T02:14:01.697Z,100.00
2023-05-22T02:16:29.848Z,100.00
2023-05-22T02:21:48.990Z,100.00
2023-05-22T02:24:15.872Z,100.00
2023-05-22T02:26:53.366Z,100.00
2023-05-22T02:29:23.828Z,100.00
2023-05-22T02:31:52.871Z,100.00
2023-05-22T02:34:20.689Z,100.00
2023-05-22T02:36:50.859Z,100.00
2023-05-22T02:39:18.812Z,100.00
2023-05-22T02:41:45.704Z,100.00
2023-05-22T02:44:14.983Z,100.00
2023-05-22T02:46:43.334Z,100.00
2023-05-22T02:49:10.397Z,100.00
2023-05-22T02:51:37.702Z,100.00
2023-05-22T02:54:19.259Z,100.00
2023-05-22T02:56:46.070Z,100.00
2023-05-22T02:59:17.442Z,100.00
2023-05-22T03:02:08.262Z,100.00
2023-05-22T03:04:38.854Z,100.00
2023-05-22T03:07:11.797Z,100.00
2023-05-22T03:09:39.594Z,100.00
2023-05-22T03:12:06.904Z,100.00
2023-05-22T03:14:39.020Z,100.00
2023-05-22T03:17:08.224Z,100.00
2023-05-22T03:19:35.271Z,100.00
2023-05-22T03:22:02.768Z,100.00
2023-05-22T03:24:29.932Z,100.00
2023-05-22T03:26:56.926Z,100.00
2023-05-22T03:29:35.901Z,100.00
2023-05-22T03:32:03.558Z,100.00
2023-05-22T03:34:33.589Z,100.00
2023-05-22T03:37:05.507Z,100.00
2023-05-22T03:39:33.713Z,100.00
2023-05-22T03:42:06.118Z,100.00
2023-05-22T03:44:53.832Z,100.00
2023-05-22T03:47:30.979Z,100.00
2023-05-22T03:50:01.759Z,100.00
2023-05-22T03:52:31.108Z,100.00
2023-05-22T03:55:18.390Z,100.00
2023-05-22T03:57:45.584Z,100.00
2023-05-22T04:00:16.575Z,100.00
2023-05-22T04:02:44.509Z,100.00
2023-05-22T04:05:11.576Z,100.00
2023-05-22T04:07:38.456Z,100.00
2023-05-22T04:10:09.560Z,100.00
2023-05-22T04:12:36.330Z,100.00
2023-05-22T04:15:03.439Z,100.00
2023-05-22T04:17:32.805Z,100.00
2023-05-22T04:20:00.098Z,100.00
2023-05-22T04:22:29.543Z,100.00
2023-05-22T04:24:56.777Z,100.00
2023-05-22T04:27:26.045Z,100.00
2023-05-22T04:30:03.170Z,100.00
2023-05-22T04:32:30.073Z,100.00
2023-05-22T04:35:18.148Z,100.00
2023-05-22T04:37:45.202Z,100.00
2023-05-22T04:40:14.535Z,100.00
2023-05-22T04:42:44.234Z,100.00
2023-05-22T04:45:13.936Z,100.00
2023-05-22T04:47:41.039Z,100.00
2023-05-22T04:50:23.455Z,100.00
2023-05-22T04:52:50.305Z,100.00
2023-05-22T04:55:18.477Z,100.00
2023-05-22T04:57:46.428Z,100.00
2023-05-22T05:00:16.181Z,100.00
2023-05-22T05:03:07.627Z,100.00
2023-05-22T05:05:36.648Z,100.00
2023-05-22T05:08:05.371Z,100.00
2023-05-22T05:10:34.741Z,100.00
2023-05-22T05:13:03.911Z,100.00
2023-05-22T05:15:35.846Z,100.00
2023-05-22T05:18:20.567Z,100.00
2023-05-22T05:20:49.576Z,100.00
2023-05-22T05:23:17.641Z,100.00
2023-05-22T05:28:29.448Z,100.00
2023-05-22T05:31:07.138Z,100.00
2023-05-22T05:33:56.093Z,100.00
2023-05-22T05:37:02.376Z,100.00
2023-05-22T05:39:33.672Z,100.00
2023-05-22T05:42:03.267Z,100.00
2023-05-22T05:44:47.947Z,100.00
2023-05-22T05:47:36.476Z,100.00
2023-05-22T05:50:03.924Z,100.00
2023-05-22T05:52:34.064Z,100.00
2023-05-22T05:55:09.318Z,100.00
2023-05-22T05:57:36.215Z,100.00
2023-05-22T06:00:30.169Z,100.00
2023-05-22T06:03:02.291Z,100.00
2023-05-22T06:05:48.060Z,100.00
2023-05-22T06:08:39.153Z,100.00
2023-05-22T06:11:07.361Z,100.00
2023-05-22T06:13:42.979Z,100.00
2023-05-22T06:16:11.873Z,100.00
2023-05-22T06:18:42.920Z,100.00
2023-05-22T06:21:12.419Z,100.00
2023-05-22T06:23:42.269Z,100.00
2023-05-22T06:26:17.980Z,100.00
2023-05-22T06:28:45.329Z,100.00
2023-05-22T06:31:12.128Z,100.00
2023-05-22T06:33:42.833Z,100.00
2023-05-22T06:36:13.119Z,100.00
2023-05-22T06:38:40.034Z,100.00
2023-05-22T06:41:12.202Z,100.00
2023-05-22T06:43:48.250Z,100.00
2023-05-22T06:46:16.026Z,100.00
2023-05-22T06:48:54.323Z,100.00
2023-05-22T06:51:45.680Z,100.00
2023-05-22T06:54:13.606Z,100.00
2023-05-22T06:56:42.143Z,100.00
2023-05-22T06:59:37.063Z,100.00
2023-05-22T07:02:07.219Z,100.00
2023-05-22T07:04:56.953Z,100.00
2023-05-22T07:07:30.997Z,100.00
2023-05-22T07:09:57.975Z,100.00
2023-05-22T07:12:27.522Z,100.00
2023-05-22T07:14:54.802Z,100.00
2023-05-22T07:17:23.044Z,100.00
2023-05-22T07:19:50.411Z,100.00
2023-05-22T07:22:17.091Z,100.00
2023-05-22T07:24:44.565Z,100.00
2023-05-22T07:27:40.469Z,100.00
2023-05-22T07:30:08.089Z,100.00
2023-05-22T07:32:36.244Z,100.00
2023-05-22T07:35:04.083Z,100.00
2023-05-22T07:37:31.156Z,100.00
2023-05-22T07:39:59.201Z,100.00
2023-05-22T07:42:28.659Z,100.00
2023-05-22T07:45:00.899Z,100.00
2023-05-22T07:47:28.230Z,100.00
2023-05-22T07:49:55.384Z,100.00
2023-05-22T07:52:23.666Z,100.00
2023-05-22T07:54:51.039Z,100.00
2023-05-22T07:57:18.293Z,100.00
2023-05-22T07:59:45.266Z,100.00
2023-05-22T08:02:12.163Z,100.00
2023-05-22T08:04:39.309Z,100.00
2023-05-22T08:07:06.518Z,100.00
2023-05-22T08:09:33.708Z,100.00
2023-05-22T08:12:00.638Z,100.00
2023-05-22T08:14:38.156Z,100.00
2023-05-22T08:17:09.043Z,100.00
2023-05-22T08:19:36.151Z,100.00
2023-05-22T08:22:03.186Z,100.00
2023-05-22T08:24:30.751Z,100.00
2023-05-22T08:26:58.180Z,100.00
2023-05-22T08:29:25.055Z,100.00
2023-05-22T08:31:53.337Z,100.00
2023-05-22T08:34:20.133Z,100.00
2023-05-22T08:36:48.394Z,100.00
2023-05-22T08:39:15.656Z,100.00
2023-05-22T08:41:43.353Z,100.00
2023-05-22T08:44:12.881Z,100.00
2023-05-22T08:46:43.717Z,100.00
2023-05-22T08:49:13.973Z,100.00
2023-05-22T08:51:41.857Z,100.00
2023-05-22T08:54:09.342Z,100.00
2023-05-22T08:56:39.778Z,100.00
2023-05-22T08:59:22.802Z,100.00
2023-05-22T09:01:51.807Z,100.00
2023-05-22T09:04:22.634Z,100.00
2023-05-22T09:06:50.065Z,100.00
2023-05-22T09:09:17.330Z,100.00
2023-05-22T09:11:43.969Z,100.00
2023-05-22T09:14:41.354Z,100.00
2023-05-22T09:17:10.744Z,100.00
2023-05-22T09:19:43.157Z,100.00
2023-05-22T09:22:11.665Z,100.00
2023-05-22T09:24:44.205Z,100.00
2023-05-22T09:27:23.168Z,100.00
2023-05-22T09:29:52.211Z,100.00
2023-05-22T09:32:19.615Z,100.00
2023-05-22T09:34:50.428Z,100.00
2023-05-22T09:37:20.728Z,100.00
2023-05-22T09:39:47.804Z,100.00
2023-05-22T09:42:16.938Z,100.00
2023-05-22T09:45:02.908Z,100.00
2023-05-22T09:47:29.964Z,100.00
2023-05-22T09:50:00.216Z,100.00
2023-05-22T09:52:28.589Z,100.00
2023-05-22T09:54:56.141Z,100.00
2023-05-22T09:57:26.095Z,100.00
2023-05-22T09:59:57.603Z,100.00
2023-05-22T10:02:26.676Z,100.00
2023-05-22T10:04:56.972Z,100.00
2023-05-22T10:07:37.248Z,100.00
2023-05-22T10:10:10.769Z,100.00
2023-05-22T10:13:04.923Z,100.00
2023-05-22T10:15:31.946Z,100.00
2023-05-22T10:18:00.189Z,100.00
2023-05-22T10:20:28.901Z,100.00
2023-05-22T10:22:56.425Z,100.00
2023-05-22T10:25:30.403Z,100.00
2023-05-22T10:27:59.080Z,100.00
2023-05-22T10:30:42.017Z,100.00
2023-05-22T10:33:41.031Z,100.00
2023-05-22T10:36:48.287Z,99.98
2023-05-22T10:39:41.036Z,100.00
2023-05-22T10:42:14.244Z,100.00
2023-05-22T10:44:42.826Z,99.12
2023-05-22T10:47:12.134Z,98.54
2023-05-22T10:49:44.545Z,100.00
2023-05-22T10:52:14.021Z,98.88
2023-05-22T10:54:44.511Z,100.00
2023-05-22T10:57:18.374Z,97.99
2023-05-22T11:00:10.257Z,96.10
2023-05-22T11:02:45.043Z,88.37
2023-05-22T11:05:22.142Z,96.15
2023-05-22T11:07:48.986Z,82.79
2023-05-22T11:10:26.509Z,85.79
2023-05-22T11:13:11.470Z,88.97
2023-05-22T11:15:45.103Z,90.35
2023-05-22T11:18:16.692Z,92.41
2023-05-22T11:20:43.851Z,91.91
2023-05-22T11:23:11.249Z,86.64
2023-05-22T11:25:40.504Z,93.06
2023-05-22T11:28:15.722Z,94.52
2023-05-22T11:31:03.179Z,91.17
2023-05-22T11:33:30.160Z,81.21
2023-05-22T11:35:57.117Z,77.82
2023-05-22T11:38:25.796Z,78.59
2023-05-22T11:40:52.639Z,77.29
2023-05-22T11:43:33.458Z,78.43
2023-05-22T11:46:08.729Z,81.59
2023-05-22T11:48:36.236Z,76.14
2023-05-22T11:51:03.486Z,82.42
2023-05-22T11:53:34.177Z,82.19
2023-05-22T11:56:02.889Z,85.83
2023-05-22T11:58:30.432Z,85.45
2023-05-22T12:01:01.969Z,80.38
2023-05-22T12:03:30.062Z,72.57
2023-05-22T12:05:57.580Z,78.12
2023-05-22T12:08:25.088Z,73.66
2023-05-22T12:10:53.629Z,71.81
2023-05-22T12:13:26.304Z,65.23
2023-05-22T12:16:00.446Z,63.50
2023-05-22T12:18:35.254Z,61.07
2023-05-22T12:21:06.045Z,61.71
2023-05-22T12:23:32.855Z,57.85
2023-05-22T12:26:01.732Z,52.47
2023-05-22T12:28:31.536Z,47.66
2023-05-22T12:30:59.610Z,44.63
2023-05-22T12:33:30.689Z,42.00
2023-05-22T12:35:58.145Z,38.07
2023-05-22T12:38:30.397Z,37.19
2023-05-22T12:40:57.730Z,39.88
2023-05-22T12:43:29.332Z,38.64
2023-05-22T12:45:56.041Z,36.12
2023-05-22T12:48:22.920Z,35.11
2023-05-22T12:50:49.581Z,31.92
2023-05-22T12:53:16.500Z,30.75
2023-05-22T12:55:43.290Z,30.40
2023-05-22T12:58:10.593Z,29.94
2023-05-22T13:00:37.753Z,29.85
2023-05-22T13:03:06.011Z,28.71
2023-05-22T13:05:45.422Z,27.86
2023-05-22T13:08:13.442Z,27.32
2023-05-22T13:10:40.278Z,27.32
2023-05-22T13:13:07.057Z,27.13
2023-05-22T13:15:35.586Z,28.29
2023-05-22T13:18:02.519Z,29.24
2023-05-22T13:20:29.753Z,30.77
2023-05-22T13:25:39.167Z,33.42
2023-05-22T13:28:06.785Z,31.77
2023-05-22T13:30:33.862Z,31.58
2023-05-22T13:35:27.590Z,28.15
2023-05-22T13:37:54.542Z,29.31
2023-05-22T13:40:21.433Z,29.81
2023-05-22T13:42:48.243Z,29.02
2023-05-22T13:45:15.154Z,28.48
2023-05-22T13:47:49.209Z,27.24
2023-05-22T13:50:16.277Z,26.93
2023-05-22T13:52:43.302Z,26.02
2023-05-22T13:55:10.268Z,25.73
2023-05-22T13:57:48.915Z,24.69
2023-05-22T14:00:16.161Z,24.43
2023-05-22T14:02:53.523Z,23.65
2023-05-22T14:05:20.536Z,24.13
2023-05-22T14:07:47.387Z,25.51
2023-05-22T14:10:22.352Z,25.63
2023-05-22T14:12:49.117Z,25.13
2023-05-22T14:15:16.723Z,24.53
2023-05-22T14:17:43.509Z,23.00
2023-05-22T14:20:10.765Z,22.75
2023-05-22T14:22:55.347Z,22.36
2023-05-22T14:25:29.168Z,21.89
2023-05-22T14:27:56.082Z,22.11
2023-05-22T14:30:23.059Z,20.14
2023-05-22T14:32:50.277Z,19.21
2023-05-22T14:35:17.140Z,19.56
2023-05-22T14:37:45.589Z,20.12
2023-05-22T14:40:12.504Z,19.81
2023-05-22T14:42:39.310Z,19.27
2023-05-22T14:45:06.530Z,18.74
2023-05-22T14:47:33.385Z,18.67
2023-05-22T14:50:14.864Z,18.85
2023-05-22T14:52:46.295Z,19.11
2023-05-22T14:55:13.185Z,19.14
2023-05-22T14:57:39.964Z,18.68
2023-05-22T15:00:09.215Z,18.86
2023-05-22T15:02:36.591Z,19.36
2023-05-22T15:05:03.959Z,19.21
2023-05-22T15:07:43.138Z,19.58
2023-05-22T15:10:11.809Z,19.50
2023-05-22T15:12:38.768Z,19.38
2023-05-22T15:15:06.023Z,19.31
2023-05-22T15:17:32.869Z,18.10
2023-05-22T15:19:59.944Z,18.00
2023-05-22T15:22:26.785Z,18.37
2023-05-22T15:25:07.528Z,19.26
2023-05-22T15:27:35.527Z,18.69
2023-05-22T15:30:03.857Z,19.14
2023-05-22T15:32:32.132Z,19.50
2023-05-22T15:34:59.003Z,19.14
2023-05-22T15:37:27.646Z,19.47
2023-05-22T15:39:55.023Z,19.96
2023-05-22T15:42:21.696Z,20.21
2023-05-22T15:44:48.521Z,19.52
2023-05-22T15:47:16.051Z,19.22
2023-05-22T15:49:49.801Z,19.61
2023-05-22T15:52:16.730Z,19.46
2023-05-22T15:54:43.609Z,20.06
2023-05-22T15:57:10.504Z,20.26
2023-05-22T15:59:37.368Z,20.24
2023-05-22T16:02:09.069Z,20.38
2023-05-22T16:04:35.964Z,20.47
2023-05-22T16:07:03.341Z,20.52
2023-05-22T16:09:35.478Z,20.70
2023-05-22T16:12:03.494Z,21.27
2023-05-22T16:14:30.665Z,21.54
2023-05-22T16:16:57.423Z,21.60
2023-05-22T16:19:24.254Z,22.03
2023-05-22T16:21:51.138Z,22.24
2023-05-22T16:24:31.951Z,22.30
2023-05-22T16:26:59.458Z,22.30
2023-05-22T16:29:26.716Z,22.54
2023-05-22T16:31:56.316Z,23.01
2023-05-22T16:34:23.152Z,22.40
2023-05-22T16:37:04.522Z,22.37
2023-05-22T16:39:31.317Z,22.17
2023-05-22T16:42:26.705Z,22.33
2023-05-22T16:44:53.554Z,22.36
2023-05-22T16:47:21.383Z,22.52
2023-05-22T16:49:57.756Z,22.61
2023-05-22T16:52:25.994Z,22.99
2023-05-22T16:54:54.129Z,23.08
2023-05-22T16:57:20.933Z,23.42
2023-05-22T16:59:51.834Z,23.76
2023-05-22T17:02:19.227Z,23.83
2023-05-22T17:04:46.452Z,23.89
2023-05-22T17:07:14.179Z,23.74
2023-05-22T17:09:41.256Z,23.91
2023-05-22T17:12:10.376Z,24.07
2023-05-22T17:14:37.303Z,24.62
2023-05-22T17:17:18.576Z,25.20
2023-05-22T17:19:45.724Z,25.66
2023-05-22T17:22:12.506Z,26.33
2023-05-22T17:24:39.277Z,27.34
2023-05-22T17:27:06.111Z,28.19
2023-05-22T17:29:39.060Z,29.25
2023-05-22T17:32:06.251Z,29.91
2023-05-22T17:34:36.426Z,30.46
2023-05-22T17:37:03.296Z,30.62
2023-05-22T17:39:32.417Z,30.92
2023-05-22T17:42:00.499Z,31.36
2023-05-22T17:44:27.882Z,31.53
2023-05-22T17:46:54.909Z,32.40
2023-05-22T17:49:21.847Z,32.88
2023-05-22T17:51:49.379Z,35.08
2023-05-22T17:54:25.115Z,35.50
2023-05-22T17:56:51.975Z,36.32
2023-05-22T17:59:18.801Z,37.06
2023-05-22T18:01:47.218Z,37.19
2023-05-22T18:04:14.619Z,41.09
2023-05-22T18:06:41.684Z,45.85
2023-05-22T18:09:09.417Z,52.79
2023-05-22T18:11:36.591Z,63.32
2023-05-22T18:14:11.533Z,63.51
2023-05-22T18:16:38.453Z,68.08
2023-05-22T18:19:05.784Z,74.05
2023-05-22T18:21:35.514Z,82.48
2023-05-22T18:24:02.842Z,86.85
2023-05-22T18:26:29.688Z,93.37
2023-05-22T18:28:56.809Z,98.29
2023-05-22T18:31:23.729Z,100.00
2023-05-22T18:33:50.423Z,100.00
2023-05-22T18:36:17.343Z,100.00
2023-05-22T18:38:44.368Z,100.00
2023-05-22T18:41:11.046Z,100.00
2023-05-22T18:43:38.317Z,100.00
2023-05-22T18:46:05.339Z,100.00
2023-05-22T18:48:33.235Z,100.00
2023-05-22T18:51:16.086Z,100.00
2023-05-22T18:53:55.925Z,100.00
2023-05-22T18:56:22.941Z,100.00
2023-05-22T18:58:56.038Z,100.00
2023-05-22T19:01:23.385Z,100.00
2023-05-22T19:03:50.421Z,100.00
2023-05-22T19:06:25.664Z,100.00
2023-05-22T19:08:52.426Z,100.00
2023-05-22T19:11:19.279Z,100.00
2023-05-22T19:13:46.110Z,100.00
2023-05-22T19:16:13.412Z,100.00
2023-05-22T19:18:40.360Z,100.00
2023-05-22T19:21:07.149Z,100.00
2023-05-22T19:23:52.044Z,100.00
2023-05-22T19:26:19.118Z,100.00
2023-05-22T19:28:59.322Z,100.00
2023-05-22T19:31:30.108Z,100.00
2023-05-22T19:34:08.101Z,100.00
2023-05-22T19:36:34.897Z,100.00
2023-05-22T19:39:02.301Z,100.00
2023-05-22T19:41:37.973Z,100.00
2023-05-22T19:44:07.463Z,100.00
2023-05-22T19:46:41.515Z,100.00
2023-05-22T19:49:08.773Z,100.00
2023-05-22T19:51:37.377Z,100.00
2023-05-22T19:54:04.757Z,100.00
2023-05-22T19:56:34.410Z,100.00
2023-05-22T19:59:07.145Z,100.00
2023-05-22T20:01:35.550Z,100.00
2023-05-22T20:04:05.697Z,100.00
2023-05-22T20:06:37.929Z,100.00
2023-05-22T20:09:09.815Z,100.00
2023-05-22T20:11:43.561Z,100.00
2023-05-22T20:14:20.681Z,100.00
2023-05-22T20:16:47.890Z,100.00
2023-05-22T20:19:18.667Z,100.00
2023-05-22T20:21:49.960Z,100.00
2023-05-22T20:24:23.793Z,100.00
2023-05-22T20:27:09.730Z,100.00
2023-05-22T20:31:01.250Z,100.00
2023-05-22T20:33:45.760Z,100.00
2023-05-22T20:36:47.291Z,100.00
2023-05-22T20:43:25.567Z,100.00
2023-05-22T20:50:14.700Z,100.00
2023-05-22T21:00:50.317Z,100.00
2023-05-22T21:03:47.459Z,100.00
2023-05-22T21:06:48.058Z,100.00
2023-05-22T21:09:18.076Z,100.00
2023-05-22T21:11:52.711Z,100.00
2023-05-22T21:14:29.839Z,100.00
2023-05-22T21:17:21.647Z,100.00
2023-05-22T21:19:56.991Z,100.00
2023-05-22T21:22:28.481Z,100.00
2023-05-22T21:24:56.005Z,100.00
2023-05-22T21:27:36.161Z,100.00
2023-05-22T21:30:03.127Z,100.00
2023-05-22T21:32:37.174Z,100.00
2023-05-22T21:35:09.509Z,100.00
2023-05-22T21:37:42.092Z,100.00
2023-05-22T21:40:09.413Z,100.00
2023-05-22T21:42:46.580Z,100.00
2023-05-22T21:45:16.367Z,100.00
2023-05-22T21:47:44.648Z,100.00
2023-05-22T21:50:15.430Z,100.00
2023-05-22T21:52:44.193Z,100.00
2023-05-22T21:55:12.259Z,100.00
2023-05-22T21:57:39.438Z,100.00
2023-05-22T22:00:09.366Z,100.00
2023-05-22T22:02:57.748Z,100.00
2023-05-22T22:05:30.694Z,100.00
2023-05-22T22:07:59.228Z,100.00
2023-05-22T22:10:29.143Z,100.00
2023-05-22T22:12:59.604Z,100.00
2023-05-22T22:15:33.995Z,100.00
2023-05-22T22:18:04.432Z,100.00
2023-05-22T22:20:44.093Z,100.00
2023-05-22T22:23:12.151Z,100.00
2023-05-22T22:25:40.804Z,100.00
2023-05-22T22:28:11.474Z,100.00
2023-05-22T22:30:39.153Z,100.00
2023-05-22T22:33:23.670Z,100.00
2023-05-22T22:35:53.302Z,100.00
2023-05-22T22:38:24.705Z,100.00
2023-05-22T22:41:10.343Z,100.00
2023-05-22T22:43:37.757Z,100.00
2023-05-22T22:46:05.283Z,100.00
2023-05-22T22:48:35.157Z,100.00
2023-05-22T22:51:06.095Z,100.00
2023-05-22T22:53:34.004Z,100.00
2023-05-22T22:56:02.868Z,100.00
2023-05-22T22:58:32.797Z,100.00
2023-05-22T23:01:10.668Z,100.00
2023-05-22T23:03:44.861Z,100.00
2023-05-22T23:06:18.792Z,100.00
2023-05-22T23:08:50.047Z,100.00
2023-05-22T23:14:11.505Z,100.00
2023-05-22T23:16:47.341Z,100.00
2023-05-22T23:19:45.506Z,100.00
2023-05-22T23:22:13.900Z,100.00
2023-05-22T23:24:54.108Z,100.00
2023-05-22T23:27:26.937Z,100.00
2023-05-22T23:30:04.194Z,100.00
2023-05-22T23:32:36.328Z,100.00
2023-05-22T23:35:09.003Z,100.00
2023-05-22T23:37:36.496Z,100.00
2023-05-22T23:40:18.743Z,100.00
2023-05-22T23:42:46.520Z,100.00
2023-05-22T23:45:14.322Z,100.00
2023-05-22T23:47:42.697Z,100.00
2023-05-22T23:53:08.342Z,100.00
2023-05-22T23:55:35.236Z,100.00
2023-05-22T23:58:02.427Z,100.00
